Urb Luquillo Lomas, Puerto Rico
Current Conditions -  °F | °C
As of 12:53 AM on Wednesday 26 Nov 2014 (Local Time) from TJNR Reporting Station
Few Clouds Few Clouds  
Wind Chill: 79°   Ceiling: Unl
Heat Index: 82°   Visibility: 10mi
Dew Point: 71°   Wind: 8mph
Humidity: 77%   Direction: 70°ENE
Pressure: 30.02"   Gusts: NA
Location:  18.3744°N, 65.7168°W
Report Text: TJNR 260453Z AUTO 07007KT 10SM FEW028 26/22 A3002 RMK AO2 SLP167 T02610217 $
Loading
Personal Weather Stations






























Interactive Weather Map New forecast layout! Learn more

10-Day Weather Forecast

Advertisements
Track Severe Weather on mobile